Wetterdaten: aktuell Dienstag, 10.12.2019 09:00
Datum Zeit Temp. A. Feuchte A. Luftdruck Regen Wind Richtung Richtung Taupunkt Windchill Windben Empfang
10.12.2019 09:00 1,5 C 92 % 1023,1 hPa 0,0 l/m 0,4 km/h (0 Bft) S-SW 200 0,3 C 1,5 C 10,3 km/h (2 Bft) 100 %
10.12.2019 08:50 1,4 C 92 % 1023,0 hPa 0,0 l/m 0,1 km/h (0 Bft) S-SW 200 0,2 C 1,4 C 4,1 km/h (1 Bft) 100 %
10.12.2019 08:40 1,3 C 92 % 1023,0 hPa 0,0 l/m 4,5 km/h (1 Bft) SW 231 0,1 C 1,3 C 10,3 km/h (2 Bft) 100 %
10.12.2019 08:30 1,3 C 92 % 1023,0 hPa 0,0 l/m 4,7 km/h (1 Bft) S-SW 206 0,1 C 0,0 C 8,2 km/h (2 Bft) 99 %
10.12.2019 08:20 1,3 C 92 % 1023,0 hPa 0,0 l/m 6,5 km/h (2 Bft) S-SW 213 0,1 C -0,7 C 12,4 km/h (3 Bft) 100 %
10.12.2019 08:10 1,3 C 92 % 1023,0 hPa 0,0 l/m 5,4 km/h (1 Bft) S-SW 206 0,1 C -0,3 C 10,3 km/h (2 Bft) 100 %
10.12.2019 08:00 1,4 C 92 % 1022,9 hPa 0,0 l/m 5,8 km/h (2 Bft) S-SW 209 0,2 C -0,3 C 10,3 km/h (2 Bft) 99 %
10.12.2019 07:50 1,3 C 92 % 1022,8 hPa 0,0 l/m 3,3 km/h (1 Bft) S-SW 198 0,1 C 1,3 C 10,3 km/h (2 Bft) 98 %
10.12.2019 07:40 1,3 C 92 % 1022,6 hPa 0,0 l/m 0,6 km/h (0 Bft) SW 223 0,1 C 1,3 C 6,2 km/h (2 Bft) 100 %
10.12.2019 07:30 1,2 C 93 % 1022,4 hPa 0,0 l/m 0,2 km/h (0 Bft) S-SW 200 0,2 C 1,2 C 6,2 km/h (2 Bft) 99 %
10.12.2019 07:20 1,1 C 93 % 1022,4 hPa 0,0 l/m 0,0 km/h (0 Bft) S-SW 210 0,1 C 1,1 C 2,1 km/h (1 Bft) 100 %
10.12.2019 07:10 0,8 C 92 % 1022,4 hPa 0,0 l/m 0,1 km/h (0 Bft) S-SW 211 -0,3 C 0,8 C 6,2 km/h (2 Bft) 100 %
10.12.2019 07:00 0,9 C 92 % 1022,4 hPa 0,0 l/m 0,0 km/h (0 Bft) SW 224 -0,2 C 0,9 C 0,0 km/h (0 Bft) 100 %
10.12.2019 06:50 1,1 C 92 % 1022,5 hPa 0,0 l/m 0,0 km/h (0 Bft) SW 224 -0,1 C 1,1 C 0,0 km/h (0 Bft) 100 %
10.12.2019 06:40 1,2 C 92 % 1022,4 hPa 0,0 l/m 0,0 km/h (0 Bft) SW 224 0,0 C 1,2 C 0,0 km/h (0 Bft) 99 %
10.12.2019 06:30 1,2 C 92 % 1022,3 hPa 0,0 l/m 0,0 km/h (0 Bft) SW 224 0,0 C 1,2 C 0,0 km/h (0 Bft) 99 %
10.12.2019 06:20 1,2 C 91 % 1022,1 hPa 0,0 l/m 0,0 km/h (0 Bft) SW 224 -0,1 C 1,2 C 2,1 km/h (1 Bft) 100 %
10.12.2019 06:10 1,3 C 91 % 1022,2 hPa 0,0 l/m 0,0 km/h (0 Bft) SW 224 -0,0 C 1,3 C 0,0 km/h (0 Bft) 99 %
10.12.2019 06:00 1,3 C 91 % 1022,0 hPa 0,0 l/m 0,0 km/h (0 Bft) SW 224 -0,0 C 1,3 C 2,1 km/h (1 Bft) 98 %
10.12.2019 05:50 1,4 C 91 % 1022,0 hPa 0,0 l/m 0,0 km/h (0 Bft) SW 224 0,1 C 1,4 C 0,0 km/h (0 Bft) 99 %
10.12.2019 05:40 1,4 C 90 % 1021,8 hPa 0,0 l/m 0,0 km/h (0 Bft) SW 224 -0,1 C 1,4 C 0,0 km/h (0 Bft) 99 %
10.12.2019 05:30 1,6 C 90 % 1021,7 hPa 0,0 l/m 0,0 km/h (0 Bft) SW 224 0,1 C 1,6 C 0,0 km/h (0 Bft) 99 %
10.12.2019 05:20 1,7 C 89 % 1021,7 hPa 0,0 l/m 0,0 km/h (0 Bft) SW 224 0,1 C 1,7 C 0,0 km/h (0 Bft) 99 %
10.12.2019 05:10 1,9 C 89 % 1021,6 hPa 0,0 l/m 0,0 km/h (0 Bft) SW 224 0,3 C 1,9 C 0,0 km/h (0 Bft) 100 %
10.12.2019 05:00 2,1 C 89 % 1021,6 hPa 0,0 l/m 0,0 km/h (0 Bft) SW 224 0,5 C 2,1 C 0,0 km/h (0 Bft) 97 %
10.12.2019 04:50 2,3 C 88 % 1021,4 hPa 0,0 l/m 0,0 km/h (0 Bft) SW 224 0,5 C 2,3 C 0,0 km/h (0 Bft) 100 %
10.12.2019 04:40 2,5 C 88 % 1021,3 hPa 0,0 l/m 0,0 km/h (0 Bft) SW 224 0,7 C 2,5 C 0,0 km/h (0 Bft) 100 %
10.12.2019 04:30 2,7 C 88 % 1021,2 hPa 0,0 l/m 0,0 km/h (0 Bft) SW 224 0,9 C 2,7 C 0,0 km/h (0 Bft) 100 %
10.12.2019 04:20 2,8 C 88 % 1021,1 hPa 0,0 l/m 0,1 km/h (0 Bft) SW 224 1,0 C 2,8 C 4,1 km/h (1 Bft) 98 %
10.12.2019 04:10 2,9 C 88 % 1021,1 hPa 0,0 l/m 0,0 km/h (0 Bft) SW 219 1,1 C 2,9 C 4,1 km/h (1 Bft) 99 %
10.12.2019 04:00 2,9 C 88 % 1020,9 hPa 0,0 l/m 0,0 km/h (0 Bft) W-SW 257 1,1 C 2,9 C 0,0 km/h (0 Bft) 100 %
10.12.2019 03:50 2,9 C 87 % 1020,7 hPa 0,0 l/m 0,0 km/h (0 Bft) W 259 1,0 C 2,9 C 0,0 km/h (0 Bft) 99 %
10.12.2019 03:40 2,9 C 87 % 1020,5 hPa 0,0 l/m 0,1 km/h (0 Bft) W-SW 258 1,0 C 2,9 C 6,2 km/h (2 Bft) 100 %
10.12.2019 03:30 2,9 C 87 % 1020,3 hPa 0,0 l/m 0,0 km/h (0 Bft) SW 227 1,0 C 2,9 C 2,1 km/h (1 Bft) 99 %
10.12.2019 03:20 2,8 C 87 % 1020,3 hPa 0,0 l/m 0,0 km/h (0 Bft) SW 215 0,9 C 2,8 C 2,1 km/h (1 Bft) 99 %
10.12.2019 03:10 2,9 C 87 % 1020,1 hPa 0,0 l/m 0,1 km/h (0 Bft) S-SW 209 1,0 C 2,9 C 4,1 km/h (1 Bft) 99 %
10.12.2019 03:00 2,9 C 86 % 1020,0 hPa 0,0 l/m 0,0 km/h (0 Bft) W-SW 240 0,8 C 2,9 C 0,0 km/h (0 Bft) 99 %
10.12.2019 02:50 3,1 C 86 % 1019,8 hPa 0,0 l/m 0,0 km/h (0 Bft) SW 234 1,0 C 3,1 C 0,0 km/h (0 Bft) 99 %
10.12.2019 02:40 3,2 C 86 % 1019,8 hPa 0,0 l/m 0,4 km/h (0 Bft) W 273 1,1 C 3,2 C 8,2 km/h (2 Bft) 99 %
10.12.2019 02:30 3,2 C 87 % 1019,6 hPa 0,0 l/m 0,2 km/h (0 Bft) SW 235 1,2 C 3,2 C 8,2 km/h (2 Bft) 99 %
10.12.2019 02:20 3,2 C 87 % 1019,2 hPa 0,0 l/m 0,2 km/h (0 Bft) W-NW 294 1,2 C 3,2 C 8,2 km/h (2 Bft) 100 %
10.12.2019 02:10 3,3 C 87 % 1018,9 hPa 0,0 l/m 0,0 km/h (0 Bft) W-SW 238 1,3 C 3,3 C 2,1 km/h (1 Bft) 98 %
10.12.2019 02:00 3,2 C 88 % 1018,6 hPa 0,0 l/m 0,2 km/h (0 Bft) SW 230 1,4 C 3,2 C 10,3 km/h (2 Bft) 100 %
10.12.2019 01:50 3,1 C 87 % 1018,5 hPa 0,0 l/m 0,0 km/h (0 Bft) W-SW 242 1,2 C 3,1 C 0,0 km/h (0 Bft) 99 %
10.12.2019 01:40 3,2 C 87 % 1018,4 hPa 0,0 l/m 0,0 km/h (0 Bft) W-SW 242 1,2 C 3,2 C 0,0 km/h (0 Bft) 100 %
10.12.2019 01:30 3,3 C 87 % 1018,2 hPa 0,0 l/m 0,1 km/h (0 Bft) S-SW 206 1,3 C 3,3 C 6,2 km/h (2 Bft) 100 %
10.12.2019 01:20 3,3 C 86 % 1018,1 hPa 0,0 l/m 0,0 km/h (0 Bft) W-SW 248 1,2 C 3,3 C 0,0 km/h (0 Bft) 100 %
10.12.2019 01:10 3,4 C 86 % 1017,9 hPa 0,0 l/m 0,0 km/h (0 Bft) W-SW 250 1,3 C 3,4 C 2,1 km/h (1 Bft) 99 %
10.12.2019 01:00 3,4 C 86 % 1017,9 hPa 0,0 l/m 0,0 km/h (0 Bft) SW 219 1,3 C 3,4 C 4,1 km/h (1 Bft) 99 %
10.12.2019 00:50 3,4 C 86 % 1017,9 hPa 0,0 l/m 0,0 km/h (0 Bft) W-SW 257 1,3 C 3,4 C 2,1 km/h (1 Bft) 99 %
10.12.2019 00:40 3,3 C 87 % 1017,7 hPa 0,0 l/m 0,3 km/h (0 Bft) SW 225 1,3 C 3,3 C 12,4 km/h (3 Bft) 99 %
10.12.2019 00:30 3,3 C 87 % 1017,5 hPa 0,0 l/m 0,2 km/h (0 Bft) S-SW 203 1,3 C 3,3 C 10,3 km/h (2 Bft) 100 %
10.12.2019 00:20 3,2 C 86 % 1017,2 hPa 0,0 l/m 0,1 km/h (0 Bft) SW 229 1,1 C 3,2 C 2,1 km/h (1 Bft) 99 %
10.12.2019 00:10 3,4 C 86 % 1017,0 hPa 0,0 l/m 0,0 km/h (0 Bft) SW 234 1,3 C 3,4 C 0,0 km/h (0 Bft) 100 %
10.12.2019 00:00 3,6 C 85 % 1016,9 hPa 0,0 l/m 0,0 km/h (0 Bft) S-SW 200 1,3 C 3,6 C 0,0 km/h (0 Bft) 100 %
09.12.2019 23:50 3,8 C 85 % 1016,6 hPa 0,0 l/m 0,1 km/h (0 Bft) SW 222 1,5 C 3,8 C 6,2 km/h (2 Bft) 99 %
09.12.2019 23:40 3,9 C 85 % 1016,3 hPa 0,0 l/m 0,4 km/h (0 Bft) SW 229 1,6 C 3,9 C 8,2 km/h (2 Bft) 99 %
09.12.2019 23:30 4,1 C 85 % 1016,0 hPa 0,0 l/m 0,2 km/h (0 Bft) S 184 1,8 C 4,1 C 6,2 km/h (2 Bft) 100 %
09.12.2019 23:20 4,3 C 85 % 1015,9 hPa 0,0 l/m 0,0 km/h (0 Bft) SW 232 2,0 C 4,3 C 0,0 km/h (0 Bft) 100 %
09.12.2019 23:10 4,4 C 84 % 1015,6 hPa 0,0 l/m 0,0 km/h (0 Bft) SW 232 1,9 C 4,4 C 2,1 km/h (1 Bft) 100 %
09.12.2019 23:00 4,4 C 84 % 1015,4 hPa 0,0 l/m 0,9 km/h (0 Bft) W-NW 292 1,9 C 4,4 C 16,5 km/h (3 Bft) 98 %
09.12.2019 22:50 4,4 C 85 % 1015,3 hPa 0,0 l/m 4,4 km/h (1 Bft) W-NW 294 2,1 C 4,4 C 18,5 km/h (3 Bft) 99 %
09.12.2019 22:40 4,1 C 85 % 1015,1 hPa 0,0 l/m 1,9 km/h (1 Bft) NW 323 1,8 C 4,1 C 18,5 km/h (3 Bft) 99 %
09.12.2019 22:30 4,1 C 86 % 1014,7 hPa 0,0 l/m 0,2 km/h (0 Bft) W-SW 258 2,0 C 4,1 C 14,4 km/h (3 Bft) 98 %
09.12.2019 22:20 4,2 C 86 % 1014,6 hPa 0,0 l/m 1,1 km/h (1 Bft) W-SW 249 2,1 C 4,2 C 14,4 km/h (3 Bft) 99 %
09.12.2019 22:10 4,3 C 85 % 1014,5 hPa 0,0 l/m 0,9 km/h (0 Bft) W 278 2,0 C 4,3 C 14,4 km/h (3 Bft) 98 %
09.12.2019 22:00 4,5 C 84 % 1014,2 hPa 0,0 l/m 0,2 km/h (0 Bft) S 178 2,0 C 4,5 C 6,2 km/h (2 Bft) 99 %
09.12.2019 21:50 4,7 C 84 % 1013,9 hPa 0,0 l/m 1,1 km/h (1 Bft) W 270 2,2 C 4,7 C 18,5 km/h (3 Bft) 99 %
09.12.2019 21:40 4,8 C 84 % 1013,7 hPa 0,0 l/m 3,3 km/h (1 Bft) W-NW 302 2,3 C 4,8 C 20,6 km/h (4 Bft) 100 %
09.12.2019 21:30 4,8 C 85 % 1013,5 hPa 0,0 l/m 0,9 km/h (0 Bft) W 277 2,5 C 4,8 C 14,4 km/h (3 Bft) 99 %
09.12.2019 21:20 4,9 C 84 % 1013,3 hPa 0,0 l/m 0,2 km/h (0 Bft) SW 227 2,4 C 4,9 C 8,2 km/h (2 Bft) 100 %
09.12.2019 21:10 5,1 C 84 % 1013,0 hPa 0,0 l/m 0,5 km/h (0 Bft) N-NW 333 2,6 C 5,1 C 8,2 km/h (2 Bft) 100 %
09.12.2019 21:00 5,2 C 84 % 1012,8 hPa 0,0 l/m 0,6 km/h (0 Bft) W 261 2,7 C 5,2 C 10,3 km/h (2 Bft) 100 %
09.12.2019 20:50 5,2 C 84 % 1012,4 hPa 0,0 l/m 1,5 km/h (1 Bft) S-SW 198 2,7 C 5,2 C 14,4 km/h (3 Bft) 99 %
09.12.2019 20:40 5,3 C 83 % 1012,1 hPa 0,0 l/m 0,4 km/h (0 Bft) W-NW 286 2,7 C 5,3 C 14,4 km/h (3 Bft) 100 %
09.12.2019 20:30 5,5 C 82 % 1011,8 hPa 0,0 l/m 0,1 km/h (0 Bft) S-SW 207 2,7 C 5,5 C 8,2 km/h (2 Bft) 99 %
09.12.2019 20:20 5,6 C 82 % 1011,5 hPa 0,0 l/m 0,6 km/h (0 Bft) W-NW 283 2,8 C 5,6 C 8,2 km/h (2 Bft) 100 %
09.12.2019 20:10 5,6 C 83 % 1011,2 hPa 0,0 l/m 2,3 km/h (1 Bft) N 11 2,9 C 5,6 C 18,5 km/h (3 Bft) 99 %
09.12.2019 20:00 5,6 C 84 % 1011,0 hPa 0,0 l/m 1,6 km/h (1 Bft) N-NW 338 3,1 C 5,6 C 16,5 km/h (3 Bft) 100 %
09.12.2019 19:50 5,6 C 84 % 1010,7 hPa 0,0 l/m 2,6 km/h (1 Bft) NW 310 3,1 C 5,6 C 18,5 km/h (3 Bft) 99 %
09.12.2019 19:40 5,7 C 83 % 1010,2 hPa 0,0 l/m 0,9 km/h (0 Bft) NW 308 3,0 C 5,7 C 12,4 km/h (3 Bft) 99 %
09.12.2019 19:30 5,8 C 82 % 1009,8 hPa 0,0 l/m 4,6 km/h (1 Bft) NW 319 3,0 C 5,1 C 24,7 km/h (4 Bft) 100 %
09.12.2019 19:20 6,0 C 81 % 1009,5 hPa 0,0 l/m 4,7 km/h (1 Bft) N-NW 327 3,0 C 5,3 C 24,7 km/h (4 Bft) 100 %
09.12.2019 19:10 6,1 C 80 % 1009,2 hPa 0,0 l/m 2,8 km/h (1 Bft) NW 312 2,9 C 6,1 C 18,5 km/h (3 Bft) 98 %
09.12.2019 19:00 6,3 C 80 % 1008,9 hPa 0,0 l/m 6,6 km/h (2 Bft) W 281 3,1 C 5,0 C 28,8 km/h (4 Bft) 98 %
09.12.2019 18:50 6,5 C 81 % 1008,7 hPa 0,0 l/m 7,8 km/h (2 Bft) N-NO 29 3,5 C 4,9 C 35,0 km/h (5 Bft) 99 %
09.12.2019 18:40 6,5 C 81 % 1008,3 hPa 0,0 l/m 4,1 km/h (1 Bft) NO 52 3,5 C 6,5 C 20,6 km/h (4 Bft) 100 %
09.12.2019 18:30 6,5 C 81 % 1007,8 hPa 0,0 l/m 6,6 km/h (2 Bft) O-NO 68 3,5 C 5,3 C 24,7 km/h (4 Bft) 99 %
09.12.2019 18:20 6,4 C 83 % 1007,5 hPa 0,0 l/m 5,9 km/h (2 Bft) N-NW 331 3,7 C 5,4 C 26,8 km/h (4 Bft) 99 %
09.12.2019 18:10 6,4 C 84 % 1006,9 hPa 0,0 l/m 5,4 km/h (1 Bft) N-NW 330 3,9 C 5,5 C 22,7 km/h (4 Bft) 100 %
09.12.2019 18:00 6,4 C 85 % 1006,7 hPa 0,0 l/m 4,4 km/h (1 Bft) NW 315 4,1 C 6,4 C 20,6 km/h (4 Bft) 100 %
09.12.2019 17:50 6,4 C 87 % 1006,2 hPa 0,0 l/m 5,9 km/h (2 Bft) W-NW 290 4,4 C 5,4 C 22,7 km/h (4 Bft) 99 %
09.12.2019 17:40 6,4 C 87 % 1005,8 hPa 0,0 l/m 6,4 km/h (2 Bft) W 273 4,4 C 5,2 C 20,6 km/h (4 Bft) 100 %
09.12.2019 17:30 6,3 C 89 % 1005,5 hPa 0,0 l/m 3,1 km/h (1 Bft) NW 314 4,6 C 6,3 C 18,5 km/h (3 Bft) 99 %
09.12.2019 17:20 6,3 C 90 % 1005,2 hPa 0,0 l/m 2,9 km/h (1 Bft) W-NW 302 4,8 C 6,3 C 18,5 km/h (3 Bft) 100 %
09.12.2019 17:10 6,2 C 91 % 1004,8 hPa 0,0 l/m 4,8 km/h (1 Bft) W-NW 291 4,8 C 5,5 C 24,7 km/h (4 Bft) 99 %
09.12.2019 17:00 6,2 C 92 % 1004,4 hPa 0,0 l/m 2,6 km/h (1 Bft) W 280 5,0 C 6,2 C 10,3 km/h (2 Bft) 99 %
09.12.2019 16:50 6,3 C 92 % 1004,0 hPa 0,0 l/m 2,1 km/h (1 Bft) W-NW 298 5,1 C 6,3 C 16,5 km/h (3 Bft) 99 %
09.12.2019 16:40 6,3 C 92 % 1003,8 hPa 0,4 l/m 5,0 km/h (1 Bft) NW 309 5,1 C 5,6 C 18,5 km/h (3 Bft) 99 %
09.12.2019 16:30 6,4 C 91 % 1003,4 hPa 0,0 l/m 4,4 km/h (1 Bft) W-NW 294 5,0 C 6,4 C 26,8 km/h (4 Bft) 100 %
09.12.2019 16:20 6,4 C 92 % 1002,8 hPa 0,0 l/m 2,7 km/h (1 Bft) NW 315 5,2 C 6,4 C 18,5 km/h (3 Bft) 99 %
09.12.2019 16:10 6,6 C 92 % 1002,4 hPa 0,0 l/m 9,1 km/h (2 Bft) W 270 5,4 C 4,8 C 26,8 km/h (4 Bft) 99 %
09.12.2019 16:00 6,9 C 92 % 1002,3 hPa 0,6 l/m 8,1 km/h (2 Bft) NO 44 5,7 C 5,3 C 28,8 km/h (4 Bft) 100 %
09.12.2019 15:50 7,1 C 91 % 1001,7 hPa 0,2 l/m 5,7 km/h (1 Bft) NW 323 5,7 C 6,2 C 20,6 km/h (4 Bft) 99 %
09.12.2019 15:40 7,3 C 90 % 1001,2 hPa 0,2 l/m 7,1 km/h (2 Bft) N-NW 327 5,8 C 6,1 C 24,7 km/h (4 Bft) 100 %
09.12.2019 15:30 7,6 C 89 % 1000,8 hPa 0,0 l/m 5,2 km/h (1 Bft) W-NW 295 5,9 C 7,0 C 20,6 km/h (4 Bft) 99 %
09.12.2019 15:20 7,7 C 89 % 1000,4 hPa 0,0 l/m 1,7 km/h (1 Bft) NW 304 6,0 C 7,7 C 18,5 km/h (3 Bft) 99 %
09.12.2019 15:10 7,8 C 90 % 1000,0 hPa 0,0 l/m 1,6 km/h (1 Bft) W-NW 283 6,3 C 7,8 C 12,4 km/h (3 Bft) 98 %
09.12.2019 15:00 7,8 C 90 % 999,7 hPa 0,0 l/m 2,7 km/h (1 Bft) NW 306 6,3 C 7,8 C 18,5 km/h (3 Bft) 99 %
09.12.2019 14:50 7,8 C 90 % 999,3 hPa 0,0 l/m 0,7 km/h (0 Bft) W-SW 247 6,3 C 7,8 C 8,2 km/h (2 Bft) 99 %
09.12.2019 14:40 7,8 C 90 % 999,1 hPa 0,0 l/m 1,8 km/h (1 Bft) O-NO 62 6,3 C 7,8 C 12,4 km/h (3 Bft) 100 %
09.12.2019 14:30 7,7 C 90 % 998,8 hPa 0,0 l/m 3,1 km/h (1 Bft) S-SW 203 6,2 C 7,7 C 18,5 km/h (3 Bft) 99 %
09.12.2019 14:20 7,7 C 90 % 998,6 hPa 0,0 l/m 0,3 km/h (0 Bft) S-SW 209 6,2 C 7,7 C 14,4 km/h (3 Bft) 100 %
09.12.2019 14:10 7,7 C 90 % 998,4 hPa 0,0 l/m 0,9 km/h (0 Bft) W 271 6,2 C 7,7 C 12,4 km/h (3 Bft) 99 %
09.12.2019 14:00 7,7 C 89 % 998,2 hPa 0,0 l/m 2,1 km/h (1 Bft) S-SW 206 6,0 C 7,7 C 16,5 km/h (3 Bft) 99 %
09.12.2019 13:50 7,7 C 90 % 997,9 hPa 0,0 l/m 4,4 km/h (1 Bft) S-SW 206 6,2 C 7,7 C 18,5 km/h (3 Bft) 99 %
09.12.2019 13:40 7,6 C 89 % 997,7 hPa 0,0 l/m 3,9 km/h (1 Bft) S-SW 199 5,9 C 7,6 C 18,5 km/h (3 Bft) 98 %
09.12.2019 13:30 7,6 C 89 % 997,5 hPa 0,0 l/m 2,5 km/h (1 Bft) S-SW 202 5,9 C 7,6 C 14,4 km/h (3 Bft) 99 %
09.12.2019 13:20 7,7 C 88 % 997,3 hPa 0,0 l/m 2,9 km/h (1 Bft) SO 145 5,8 C 7,7 C 20,6 km/h (4 Bft) 99 %
09.12.2019 13:10 7,8 C 89 % 997,0 hPa 0,0 l/m 1,2 km/h (1 Bft) S 190 6,1 C 7,8 C 10,3 km/h (2 Bft) 100 %
09.12.2019 13:00 7,5 C 90 % 996,6 hPa 0,0 l/m 2,6 km/h (1 Bft) S-SW 202 6,0 C 7,5 C 18,5 km/h (3 Bft) 99 %
09.12.2019 12:50 7,3 C 90 % 996,6 hPa 0,0 l/m 4,1 km/h (1 Bft) W 281 5,8 C 7,3 C 16,5 km/h (3 Bft) 98 %
09.12.2019 12:40 7,2 C 90 % 996,3 hPa 0,0 l/m 5,3 km/h (1 Bft) W-SW 243 5,7 C 6,5 C 16,5 km/h (3 Bft) 99 %
09.12.2019 12:30 7,0 C 91 % 996,2 hPa 0,0 l/m 1,3 km/h (1 Bft) S-SW 211 5,6 C 7,0 C 16,5 km/h (3 Bft) 100 %
09.12.2019 12:20 6,9 C 91 % 996,0 hPa 0,0 l/m 1,1 km/h (1 Bft) S-SW 207 5,5 C 6,9 C 18,5 km/h (3 Bft) 99 %
09.12.2019 12:10 6,8 C 91 % 995,8 hPa 0,0 l/m 4,6 km/h (1 Bft) W 259 5,4 C 6,3 C 18,5 km/h (3 Bft) 99 %
09.12.2019 12:00 6,6 C 92 % 995,6 hPa 0,0 l/m 6,0 km/h (2 Bft) S 190 5,4 C 5,6 C 18,5 km/h (3 Bft) 99 %
09.12.2019 11:50 6,6 C 92 % 995,5 hPa 0,0 l/m 6,9 km/h (2 Bft) S-SW 213 5,4 C 5,3 C 18,5 km/h (3 Bft) 99 %
09.12.2019 11:40 6,6 C 92 % 995,4 hPa 0,0 l/m 3,6 km/h (1 Bft) SW 224 5,4 C 6,6 C 12,4 km/h (3 Bft) 99 %
09.12.2019 11:30 6,6 C 92 % 995,3 hPa 0,0 l/m 6,5 km/h (2 Bft) S-SW 209 5,4 C 5,4 C 18,5 km/h (3 Bft) 100 %
09.12.2019 11:20 6,6 C 92 % 995,2 hPa 0,0 l/m 3,5 km/h (1 Bft) S 182 5,4 C 6,6 C 14,4 km/h (3 Bft) 99 %
09.12.2019 11:10 6,5 C 92 % 995,1 hPa 0,0 l/m 2,8 km/h (1 Bft) S-SW 200 5,3 C 6,5 C 14,4 km/h (3 Bft) 99 %
09.12.2019 11:00 6,5 C 92 % 994,9 hPa 0,0 l/m 0,0 km/h (0 Bft) SW 225 5,3 C 6,5 C 2,1 km/h (1 Bft) 98 %
09.12.2019 10:50 6,4 C 92 % 994,8 hPa 0,0 l/m 0,2 km/h (0 Bft) S 190 5,2 C 6,4 C 10,3 km/h (2 Bft) 100 %
09.12.2019 10:40 6,4 C 92 % 994,8 hPa 0,0 l/m 1,1 km/h (1 Bft) S 188 5,2 C 6,4 C 12,4 km/h (3 Bft) 99 %
09.12.2019 10:30 6,4 C 92 % 994,6 hPa 0,0 l/m 1,2 km/h (1 Bft) S-SW 198 5,2 C 6,4 C 8,2 km/h (2 Bft) 99 %
09.12.2019 10:20 6,3 C 92 % 994,5 hPa 0,0 l/m 4,2 km/h (1 Bft) SW 218 5,1 C 6,3 C 16,5 km/h (3 Bft) 98 %
09.12.2019 10:10 6,3 C 92 % 994,4 hPa 0,0 l/m 5,8 km/h (2 Bft) SW 233 5,1 C 5,3 C 18,5 km/h (3 Bft) 100 %
09.12.2019 10:00 6,2 C 92 % 994,3 hPa 0,0 l/m 4,8 km/h (1 Bft) SW 221 5,0 C 5,5 C 12,4 km/h (3 Bft) 100 %
_ Min-Zeit 07:10 19:00 10:00 - 11:00 - - 07:10 08:20 23:20 05:00
Minimum _ 0,8 C 80 % 994,3 hPa - 0,0 km/h (0 Bft) - - -0,3 C -0,7 C 0,0 km/h (0 Bft) 97 %
_ Max-Zeit 13:10 07:20 09:00 16:00 16:10 - - 14:40 13:10 18:50 11:30
Maximum _ 7,8 C 93 % 1023,1 hPa 0,6 l/m 9,1 km/h
W (2 Bft)
- - 6,3 C 7,8 C 35,0 km/h
W-NW (5 Bft)
100 %
Durchschnitt _ 4,8 C 88 % 1009,7 hPa #1,4 l/m 2,2 km/h (1 Bft) SW - 3,0 C 4,5 C 11,4 km/h (2 Bft) 99 %